sensor_id;sensor_type;location;lat;lon;timestamp;temperature;humidity
13440;DHT22;6792;57.698;11.946;2022-08-21T00:00:40;24.40;46.20
13440;DHT22;6792;57.698;11.946;2022-08-21T00:03:10;24.40;46.20
13440;DHT22;6792;57.698;11.946;2022-08-21T00:05:45;24.40;46.30
13440;DHT22;6792;57.698;11.946;2022-08-21T00:08:11;24.30;46.30
13440;DHT22;6792;57.698;11.946;2022-08-21T00:10:41;24.30;46.40
13440;DHT22;6792;57.698;11.946;2022-08-21T00:13:11;24.30;46.40
13440;DHT22;6792;57.698;11.946;2022-08-21T00:15:41;24.30;46.40
13440;DHT22;6792;57.698;11.946;2022-08-21T00:18:11;24.30;46.40
13440;DHT22;6792;57.698;11.946;2022-08-21T00:20:43;24.20;46.50
13440;DHT22;6792;57.698;11.946;2022-08-21T00:23:12;24.20;46.40
13440;DHT22;6792;57.698;11.946;2022-08-21T00:25:42;24.20;46.50
13440;DHT22;6792;57.698;11.946;2022-08-21T00:28:12;24.20;46.60
13440;DHT22;6792;57.698;11.946;2022-08-21T00:30:42;24.20;46.60
13440;DHT22;6792;57.698;11.946;2022-08-21T00:33:11;24.20;46.60
13440;DHT22;6792;57.698;11.946;2022-08-21T00:35:42;24.20;46.60
13440;DHT22;6792;57.698;11.946;2022-08-21T00:38:11;24.20;46.70
13440;DHT22;6792;57.698;11.946;2022-08-21T00:40:43;24.20;47.40
13440;DHT22;6792;57.698;11.946;2022-08-21T00:43:15;24.20;46.80
13440;DHT22;6792;57.698;11.946;2022-08-21T00:45:44;24.10;47.20
13440;DHT22;6792;57.698;11.946;2022-08-21T00:48:13;24.10;46.90
13440;DHT22;6792;57.698;11.946;2022-08-21T00:50:44;24.10;47.00
13440;DHT22;6792;57.698;11.946;2022-08-21T00:53:14;24.10;47.10
13440;DHT22;6792;57.698;11.946;2022-08-21T00:55:43;24.10;47.10
13440;DHT22;6792;57.698;11.946;2022-08-21T00:58:15;24.10;47.10
13440;DHT22;6792;57.698;11.946;2022-08-21T01:00:46;24.00;47.10
13440;DHT22;6792;57.698;11.946;2022-08-21T01:03:18;24.00;47.10
13440;DHT22;6792;57.698;11.946;2022-08-21T01:05:47;24.00;47.20
13440;DHT22;6792;57.698;11.946;2022-08-21T01:08:18;24.00;47.30
13440;DHT22;6792;57.698;11.946;2022-08-21T01:10:48;24.00;48.00
13440;DHT22;6792;57.698;11.946;2022-08-21T01:13:18;24.00;47.40
13440;DHT22;6792;57.698;11.946;2022-08-21T01:15:49;23.90;47.40
13440;DHT22;6792;57.698;11.946;2022-08-21T01:18:20;23.90;47.40
13440;DHT22;6792;57.698;11.946;2022-08-21T01:21:03;23.90;47.50
13440;DHT22;6792;57.698;11.946;2022-08-21T01:23:32;24.00;47.60
13440;DHT22;6792;57.698;11.946;2022-08-21T01:26:01;23.90;47.60
13440;DHT22;6792;57.698;11.946;2022-08-21T01:28:33;23.90;47.60
13440;DHT22;6792;57.698;11.946;2022-08-21T01:31:03;23.90;47.70
13440;DHT22;6792;57.698;11.946;2022-08-21T01:33:34;23.90;47.70
13440;DHT22;6792;57.698;11.946;2022-08-21T01:36:04;23.90;47.70
13440;DHT22;6792;57.698;11.946;2022-08-21T01:38:33;23.80;47.70
13440;DHT22;6792;57.698;11.946;2022-08-21T01:41:02;23.80;48.10
13440;DHT22;6792;57.698;11.946;2022-08-21T01:43:31;23.80;47.70
13440;DHT22;6792;57.698;11.946;2022-08-21T01:46:00;23.80;47.80
13440;DHT22;6792;57.698;11.946;2022-08-21T01:48:30;23.80;47.80
13440;DHT22;6792;57.698;11.946;2022-08-21T01:50:59;23.80;47.90
13440;DHT22;6792;57.698;11.946;2022-08-21T01:53:28;23.80;47.90
13440;DHT22;6792;57.698;11.946;2022-08-21T01:55:57;23.80;48.00
13440;DHT22;6792;57.698;11.946;2022-08-21T01:58:26;23.80;48.00
13440;DHT22;6792;57.698;11.946;2022-08-21T02:00:55;23.70;48.00
13440;DHT22;6792;57.698;11.946;2022-08-21T02:03:24;23.70;48.10
13440;DHT22;6792;57.698;11.946;2022-08-21T02:05:53;23.70;48.20
13440;DHT22;6792;57.698;11.946;2022-08-21T02:08:22;23.70;48.30
13440;DHT22;6792;57.698;11.946;2022-08-21T02:10:51;23.70;48.30
13440;DHT22;6792;57.698;11.946;2022-08-21T02:13:20;23.70;48.40
13440;DHT22;6792;57.698;11.946;2022-08-21T02:15:49;23.60;47.90
13440;DHT22;6792;57.698;11.946;2022-08-21T02:18:18;23.60;48.40
13440;DHT22;6792;57.698;11.946;2022-08-21T02:20:48;23.60;48.40
13440;DHT22;6792;57.698;11.946;2022-08-21T02:23:17;23.60;48.40
13440;DHT22;6792;57.698;11.946;2022-08-21T02:25:46;23.60;48.50
13440;DHT22;6792;57.698;11.946;2022-08-21T02:28:15;23.60;49.20
13440;DHT22;6792;57.698;11.946;2022-08-21T02:30:47;23.60;48.70
13440;DHT22;6792;57.698;11.946;2022-08-21T02:33:16;23.60;48.70
13440;DHT22;6792;57.698;11.946;2022-08-21T02:35:46;23.60;48.80
13440;DHT22;6792;57.698;11.946;2022-08-21T02:38:17;23.50;48.80
13440;DHT22;6792;57.698;11.946;2022-08-21T02:40:48;23.50;48.80
13440;DHT22;6792;57.698;11.946;2022-08-21T02:43:19;23.50;48.90
13440;DHT22;6792;57.698;11.946;2022-08-21T02:45:49;23.50;48.90
13440;DHT22;6792;57.698;11.946;2022-08-21T02:48:20;23.50;49.00
13440;DHT22;6792;57.698;11.946;2022-08-21T02:50:52;23.50;49.00
13440;DHT22;6792;57.698;11.946;2022-08-21T02:53:22;23.40;49.00
13440;DHT22;6792;57.698;11.946;2022-08-21T02:55:52;23.40;49.10
13440;DHT22;6792;57.698;11.946;2022-08-21T02:58:23;23.40;49.10
13440;DHT22;6792;57.698;11.946;2022-08-21T03:00:53;23.40;49.10
13440;DHT22;6792;57.698;11.946;2022-08-21T03:03:22;23.40;49.20
13440;DHT22;6792;57.698;11.946;2022-08-21T03:05:52;23.40;49.20
13440;DHT22;6792;57.698;11.946;2022-08-21T03:08:21;23.30;49.20
13440;DHT22;6792;57.698;11.946;2022-08-21T03:10:52;23.30;49.20
13440;DHT22;6792;57.698;11.946;2022-08-21T03:13:21;23.30;49.30
13440;DHT22;6792;57.698;11.946;2022-08-21T03:15:51;23.30;49.30
13440;DHT22;6792;57.698;11.946;2022-08-21T03:18:20;23.30;49.30
13440;DHT22;6792;57.698;11.946;2022-08-21T03:20:49;23.30;49.30
13440;DHT22;6792;57.698;11.946;2022-08-21T03:23:18;23.30;49.30
13440;DHT22;6792;57.698;11.946;2022-08-21T03:25:48;23.30;49.30
13440;DHT22;6792;57.698;11.946;2022-08-21T03:28:20;23.30;49.30
13440;DHT22;6792;57.698;11.946;2022-08-21T03:30:51;23.30;49.40
13440;DHT22;6792;57.698;11.946;2022-08-21T03:33:21;23.20;49.30
13440;DHT22;6792;57.698;11.946;2022-08-21T03:35:54;23.20;49.40
13440;DHT22;6792;57.698;11.946;2022-08-21T03:38:24;23.20;49.50
13440;DHT22;6792;57.698;11.946;2022-08-21T03:40:52;23.20;49.50
13440;DHT22;6792;57.698;11.946;2022-08-21T03:43:21;23.20;49.50
13440;DHT22;6792;57.698;11.946;2022-08-21T03:45:50;23.20;49.50
13440;DHT22;6792;57.698;11.946;2022-08-21T03:48:19;23.20;49.00
13440;DHT22;6792;57.698;11.946;2022-08-21T03:50:51;23.20;49.50
13440;DHT22;6792;57.698;11.946;2022-08-21T03:53:19;23.20;49.60
13440;DHT22;6792;57.698;11.946;2022-08-21T03:55:49;23.20;49.60
13440;DHT22;6792;57.698;11.946;2022-08-21T03:58:22;23.10;49.60
13440;DHT22;6792;57.698;11.946;2022-08-21T04:00:53;23.10;49.60
13440;DHT22;6792;57.698;11.946;2022-08-21T04:03:23;23.10;49.70
13440;DHT22;6792;57.698;11.946;2022-08-21T04:05:52;23.10;49.70
13440;DHT22;6792;57.698;11.946;2022-08-21T04:08:21;23.10;49.80
13440;DHT22;6792;57.698;11.946;2022-08-21T04:10:52;23.10;49.80
13440;DHT22;6792;57.698;11.946;2022-08-21T04:13:22;23.10;49.80
13440;DHT22;6792;57.698;11.946;2022-08-21T04:15:51;23.10;49.80
13440;DHT22;6792;57.698;11.946;2022-08-21T04:18:20;23.00;49.70
13440;DHT22;6792;57.698;11.946;2022-08-21T04:20:51;23.00;49.70
13440;DHT22;6792;57.698;11.946;2022-08-21T04:23:21;23.00;49.80
13440;DHT22;6792;57.698;11.946;2022-08-21T04:25:50;23.00;49.80
13440;DHT22;6792;57.698;11.946;2022-08-21T04:28:20;23.00;49.80
13440;DHT22;6792;57.698;11.946;2022-08-21T04:30:48;23.00;49.80
13440;DHT22;6792;57.698;11.946;2022-08-21T04:33:18;23.00;49.80
13440;DHT22;6792;57.698;11.946;2022-08-21T04:35:48;23.00;49.90
13440;DHT22;6792;57.698;11.946;2022-08-21T04:38:17;23.00;49.90
13440;DHT22;6792;57.698;11.946;2022-08-21T04:40:46;23.00;49.90
13440;DHT22;6792;57.698;11.946;2022-08-21T04:43:16;22.90;49.90
13440;DHT22;6792;57.698;11.946;2022-08-21T04:45:47;23.00;49.90
13440;DHT22;6792;57.698;11.946;2022-08-21T04:48:19;22.90;49.90
13440;DHT22;6792;57.698;11.946;2022-08-21T04:50:50;23.00;49.90
13440;DHT22;6792;57.698;11.946;2022-08-21T04:53:27;23.00;50.00
13440;DHT22;6792;57.698;11.946;2022-08-21T04:55:53;22.90;49.90
13440;DHT22;6792;57.698;11.946;2022-08-21T04:58:23;22.90;50.00
13440;DHT22;6792;57.698;11.946;2022-08-21T05:00:55;22.90;50.00
13440;DHT22;6792;57.698;11.946;2022-08-21T05:03:25;23.00;50.00
13440;DHT22;6792;57.698;11.946;2022-08-21T05:05:54;22.90;49.90
13440;DHT22;6792;57.698;11.946;2022-08-21T05:08:25;23.00;50.00
13440;DHT22;6792;57.698;11.946;2022-08-21T05:10:54;23.00;49.90
13440;DHT22;6792;57.698;11.946;2022-08-21T05:13:23;23.00;50.00
13440;DHT22;6792;57.698;11.946;2022-08-21T05:15:52;23.00;50.00
13440;DHT22;6792;57.698;11.946;2022-08-21T05:18:21;23.00;50.00
13440;DHT22;6792;57.698;11.946;2022-08-21T05:20:50;23.00;50.00
13440;DHT22;6792;57.698;11.946;2022-08-21T05:23:19;23.10;50.00
13440;DHT22;6792;57.698;11.946;2022-08-21T05:25:48;23.10;50.00
13440;DHT22;6792;57.698;11.946;2022-08-21T05:28:17;23.10;50.00
13440;DHT22;6792;57.698;11.946;2022-08-21T05:30:46;23.10;50.10
13440;DHT22;6792;57.698;11.946;2022-08-21T05:33:15;23.10;50.10
13440;DHT22;6792;57.698;11.946;2022-08-21T05:35:44;23.20;50.10
13440;DHT22;6792;57.698;11.946;2022-08-21T05:38:13;23.20;50.10
13440;DHT22;6792;57.698;11.946;2022-08-21T05:40:42;23.20;50.00
13440;DHT22;6792;57.698;11.946;2022-08-21T05:43:11;23.30;50.10
13440;DHT22;6792;57.698;11.946;2022-08-21T05:45:40;23.30;50.00
13440;DHT22;6792;57.698;11.946;2022-08-21T05:48:11;23.40;50.10
13440;DHT22;6792;57.698;11.946;2022-08-21T05:50:41;23.40;50.10
13440;DHT22;6792;57.698;11.946;2022-08-21T05:53:11;23.40;50.00
13440;DHT22;6792;57.698;11.946;2022-08-21T05:55:40;23.50;50.10
13440;DHT22;6792;57.698;11.946;2022-08-21T05:58:09;23.50;50.00
13440;DHT22;6792;57.698;11.946;2022-08-21T06:00:39;23.60;50.10
13440;DHT22;6792;57.698;11.946;2022-08-21T06:03:12;23.60;50.00
13440;DHT22;6792;57.698;11.946;2022-08-21T06:05:41;23.70;50.00
13440;DHT22;6792;57.698;11.946;2022-08-21T06:08:10;23.70;49.90
13440;DHT22;6792;57.698;11.946;2022-08-21T06:10:39;23.80;49.90
13440;DHT22;6792;57.698;11.946;2022-08-21T06:13:08;23.80;49.90
13440;DHT22;6792;57.698;11.946;2022-08-21T06:15:37;23.80;49.90
13440;DHT22;6792;57.698;11.946;2022-08-21T06:18:06;23.90;49.80
13440;DHT22;6792;57.698;11.946;2022-08-21T06:20:35;23.90;49.80
13440;DHT22;6792;57.698;11.946;2022-08-21T06:23:04;24.00;49.80
13440;DHT22;6792;57.698;11.946;2022-08-21T06:25:33;24.10;49.90
13440;DHT22;6792;57.698;11.946;2022-08-21T06:28:03;24.20;49.80
13440;DHT22;6792;57.698;11.946;2022-08-21T06:30:33;24.30;49.80
13440;DHT22;6792;57.698;11.946;2022-08-21T06:33:03;24.40;49.80
13440;DHT22;6792;57.698;11.946;2022-08-21T06:35:32;24.50;49.60
13440;DHT22;6792;57.698;11.946;2022-08-21T06:38:01;24.60;49.50
13440;DHT22;6792;57.698;11.946;2022-08-21T06:40:31;24.70;49.40
13440;DHT22;6792;57.698;11.946;2022-08-21T06:43:05;24.80;49.30
13440;DHT22;6792;57.698;11.946;2022-08-21T06:45:34;24.80;48.70
13440;DHT22;6792;57.698;11.946;2022-08-21T06:48:05;24.90;49.10
13440;DHT22;6792;57.698;11.946;2022-08-21T06:50:36;24.90;49.00
13440;DHT22;6792;57.698;11.946;2022-08-21T06:53:07;25.00;49.10
13440;DHT22;6792;57.698;11.946;2022-08-21T06:55:38;25.00;49.00
13440;DHT22;6792;57.698;11.946;2022-08-21T06:58:07;25.10;48.90
13440;DHT22;6792;57.698;11.946;2022-08-21T07:00:38;25.10;48.90
13440;DHT22;6792;57.698;11.946;2022-08-21T07:03:15;25.20;48.90
13440;DHT22;6792;57.698;11.946;2022-08-21T07:05:38;25.20;48.90
13440;DHT22;6792;57.698;11.946;2022-08-21T07:08:07;25.30;48.90
13440;DHT22;6792;57.698;11.946;2022-08-21T07:10:36;25.40;48.90
13440;DHT22;6792;57.698;11.946;2022-08-21T07:13:05;25.50;48.80
13440;DHT22;6792;57.698;11.946;2022-08-21T07:15:34;25.50;48.80
13440;DHT22;6792;57.698;11.946;2022-08-21T07:18:03;25.60;48.80
13440;DHT22;6792;57.698;11.946;2022-08-21T07:20:32;25.70;48.80
13440;DHT22;6792;57.698;11.946;2022-08-21T07:23:09;25.70;48.80
13440;DHT22;6792;57.698;11.946;2022-08-21T07:25:33;25.70;48.80
13440;DHT22;6792;57.698;11.946;2022-08-21T07:28:02;25.80;48.90
13440;DHT22;6792;57.698;11.946;2022-08-21T07:30:31;25.80;48.80
13440;DHT22;6792;57.698;11.946;2022-08-21T07:33:00;25.80;48.80
13440;DHT22;6792;57.698;11.946;2022-08-21T07:35:29;25.80;48.70
13440;DHT22;6792;57.698;11.946;2022-08-21T07:37:58;25.90;48.80
13440;DHT22;6792;57.698;11.946;2022-08-21T07:40:27;25.90;49.30
13440;DHT22;6792;57.698;11.946;2022-08-21T07:42:56;25.90;48.60
13440;DHT22;6792;57.698;11.946;2022-08-21T07:45:25;25.90;48.50
13440;DHT22;6792;57.698;11.946;2022-08-21T07:47:54;25.90;48.40
13440;DHT22;6792;57.698;11.946;2022-08-21T07:50:23;25.90;48.40
13440;DHT22;6792;57.698;11.946;2022-08-21T07:52:52;25.90;48.20
13440;DHT22;6792;57.698;11.946;2022-08-21T07:55:23;25.90;48.10
13440;DHT22;6792;57.698;11.946;2022-08-21T07:57:52;25.90;48.00
13440;DHT22;6792;57.698;11.946;2022-08-21T08:00:23;25.90;48.00
13440;DHT22;6792;57.698;11.946;2022-08-21T08:02:54;25.90;48.00
13440;DHT22;6792;57.698;11.946;2022-08-21T08:05:26;25.90;47.90
13440;DHT22;6792;57.698;11.946;2022-08-21T08:07:56;26.00;48.00
13440;DHT22;6792;57.698;11.946;2022-08-21T08:10:25;25.90;47.80
13440;DHT22;6792;57.698;11.946;2022-08-21T08:12:54;26.00;47.80
13440;DHT22;6792;57.698;11.946;2022-08-21T08:15:25;26.00;47.70
13440;DHT22;6792;57.698;11.946;2022-08-21T08:17:57;26.00;47.60
13440;DHT22;6792;57.698;11.946;2022-08-21T08:20:27;26.00;47.50
13440;DHT22;6792;57.698;11.946;2022-08-21T08:22:57;26.00;47.40
13440;DHT22;6792;57.698;11.946;2022-08-21T08:25:26;26.10;47.40
13440;DHT22;6792;57.698;11.946;2022-08-21T08:27:55;26.10;47.80
13440;DHT22;6792;57.698;11.946;2022-08-21T08:30:24;26.10;47.00
13440;DHT22;6792;57.698;11.946;2022-08-21T08:32:53;26.20;46.80
13440;DHT22;6792;57.698;11.946;2022-08-21T08:35:24;26.20;46.70
13440;DHT22;6792;57.698;11.946;2022-08-21T08:37:53;26.20;46.50
13440;DHT22;6792;57.698;11.946;2022-08-21T08:40:25;26.30;46.40
13440;DHT22;6792;57.698;11.946;2022-08-21T08:42:56;26.30;46.20
13440;DHT22;6792;57.698;11.946;2022-08-21T08:45:25;26.40;45.90
13440;DHT22;6792;57.698;11.946;2022-08-21T08:47:56;26.30;45.70
13440;DHT22;6792;57.698;11.946;2022-08-21T08:50:41;26.30;45.60
13440;DHT22;6792;57.698;11.946;2022-08-21T08:53:02;26.30;45.50
13440;DHT22;6792;57.698;11.946;2022-08-21T08:55:35;26.40;45.50
13440;DHT22;6792;57.698;11.946;2022-08-21T08:58:04;26.40;45.50
13440;DHT22;6792;57.698;11.946;2022-08-21T09:00:33;26.40;45.60
13440;DHT22;6792;57.698;11.946;2022-08-21T09:03:03;26.40;45.50
13440;DHT22;6792;57.698;11.946;2022-08-21T09:05:37;26.40;45.40
13440;DHT22;6792;57.698;11.946;2022-08-21T09:08:25;26.50;45.40
13440;DHT22;6792;57.698;11.946;2022-08-21T09:11:00;26.50;45.30
13440;DHT22;6792;57.698;11.946;2022-08-21T09:13:33;26.50;45.20
13440;DHT22;6792;57.698;11.946;2022-08-21T09:16:05;26.50;45.20
13440;DHT22;6792;57.698;11.946;2022-08-21T09:18:41;26.50;45.20
13440;DHT22;6792;57.698;11.946;2022-08-21T09:21:14;26.50;45.10
13440;DHT22;6792;57.698;11.946;2022-08-21T09:23:49;26.50;45.10
13440;DHT22;6792;57.698;11.946;2022-08-21T09:26:19;26.60;45.10
13440;DHT22;6792;57.698;11.946;2022-08-21T09:28:52;26.60;45.10
13440;DHT22;6792;57.698;11.946;2022-08-21T09:31:25;26.70;45.00
13440;DHT22;6792;57.698;11.946;2022-08-21T09:33:59;26.70;44.90
13440;DHT22;6792;57.698;11.946;2022-08-21T09:36:38;26.70;44.90
13440;DHT22;6792;57.698;11.946;2022-08-21T09:39:08;26.70;44.90
13440;DHT22;6792;57.698;11.946;2022-08-21T09:41:38;26.70;44.90
13440;DHT22;6792;57.698;11.946;2022-08-21T09:44:08;26.80;44.90
13440;DHT22;6792;57.698;11.946;2022-08-21T09:46:37;26.80;44.80
13440;DHT22;6792;57.698;11.946;2022-08-21T09:49:07;26.80;44.60
13440;DHT22;6792;57.698;11.946;2022-08-21T09:51:37;26.80;44.70
13440;DHT22;6792;57.698;11.946;2022-08-21T09:54:15;26.80;44.80
13440;DHT22;6792;57.698;11.946;2022-08-21T09:56:55;26.80;44.90
13440;DHT22;6792;57.698;11.946;2022-08-21T09:59:44;26.70;44.90
13440;DHT22;6792;57.698;11.946;2022-08-21T10:02:34;26.70;45.10
13440;DHT22;6792;57.698;11.946;2022-08-21T10:05:07;26.70;45.10
13440;DHT22;6792;57.698;11.946;2022-08-21T10:07:38;26.70;45.00
13440;DHT22;6792;57.698;11.946;2022-08-21T10:10:13;26.70;44.90
13440;DHT22;6792;57.698;11.946;2022-08-21T10:12:45;26.80;45.10
13440;DHT22;6792;57.698;11.946;2022-08-21T10:15:18;26.80;44.40
13440;DHT22;6792;57.698;11.946;2022-08-21T10:17:54;26.80;44.90
13440;DHT22;6792;57.698;11.946;2022-08-21T10:20:27;26.80;44.90
13440;DHT22;6792;57.698;11.946;2022-08-21T10:23:02;26.80;45.00
13440;DHT22;6792;57.698;11.946;2022-08-21T10:25:35;26.90;45.10
13440;DHT22;6792;57.698;11.946;2022-08-21T10:28:07;26.80;45.00
13440;DHT22;6792;57.698;11.946;2022-08-21T10:30:41;26.80;45.00
13440;DHT22;6792;57.698;11.946;2022-08-21T10:33:19;26.80;45.10
13440;DHT22;6792;57.698;11.946;2022-08-21T10:35:51;26.90;45.20
13440;DHT22;6792;57.698;11.946;2022-08-21T10:38:35;26.90;45.10
13440;DHT22;6792;57.698;11.946;2022-08-21T10:41:06;26.90;45.10
13440;DHT22;6792;57.698;11.946;2022-08-21T10:43:38;27.00;45.00
13440;DHT22;6792;57.698;11.946;2022-08-21T10:46:11;27.00;44.90
13440;DHT22;6792;57.698;11.946;2022-08-21T10:48:42;27.00;44.90
13440;DHT22;6792;57.698;11.946;2022-08-21T10:51:15;27.00;44.90
13440;DHT22;6792;57.698;11.946;2022-08-21T10:53:55;27.10;44.90
13440;DHT22;6792;57.698;11.946;2022-08-21T10:56:26;27.10;44.90
13440;DHT22;6792;57.698;11.946;2022-08-21T11:01:48;27.20;44.30
13440;DHT22;6792;57.698;11.946;2022-08-21T11:04:19;27.30;44.90
13440;DHT22;6792;57.698;11.946;2022-08-21T11:06:52;27.30;44.70
13440;DHT22;6792;57.698;11.946;2022-08-21T11:09:24;27.30;44.60
13440;DHT22;6792;57.698;11.946;2022-08-21T11:11:56;27.40;44.50
13440;DHT22;6792;57.698;11.946;2022-08-21T11:14:31;27.40;44.30
13440;DHT22;6792;57.698;11.946;2022-08-21T11:17:05;27.50;44.20
13440;DHT22;6792;57.698;11.946;2022-08-21T11:19:36;27.50;44.10
13440;DHT22;6792;57.698;11.946;2022-08-21T11:22:08;27.50;44.00
13440;DHT22;6792;57.698;11.946;2022-08-21T11:24:40;27.50;43.90
13440;DHT22;6792;57.698;11.946;2022-08-21T11:27:14;27.50;43.80
13440;DHT22;6792;57.698;11.946;2022-08-21T11:29:47;27.50;43.60
13440;DHT22;6792;57.698;11.946;2022-08-21T11:35:32;27.60;43.40
13440;DHT22;6792;57.698;11.946;2022-08-21T11:38:16;27.60;43.50
13440;DHT22;6792;57.698;11.946;2022-08-21T11:40:57;27.70;43.50
13440;DHT22;6792;57.698;11.946;2022-08-21T11:43:28;27.70;43.50
13440;DHT22;6792;57.698;11.946;2022-08-21T11:46:00;27.80;43.40
13440;DHT22;6792;57.698;11.946;2022-08-21T11:48:36;27.80;43.40
13440;DHT22;6792;57.698;11.946;2022-08-21T11:51:09;27.90;43.40
13440;DHT22;6792;57.698;11.946;2022-08-21T11:53:41;27.90;43.40
13440;DHT22;6792;57.698;11.946;2022-08-21T11:56:12;28.00;43.30
13440;DHT22;6792;57.698;11.946;2022-08-21T11:58:44;28.10;43.30
13440;DHT22;6792;57.698;11.946;2022-08-21T12:01:16;28.10;42.60
13440;DHT22;6792;57.698;11.946;2022-08-21T12:03:55;28.20;43.20
13440;DHT22;6792;57.698;11.946;2022-08-21T12:06:32;28.20;43.20
13440;DHT22;6792;57.698;11.946;2022-08-21T12:09:03;28.40;43.20
13440;DHT22;6792;57.698;11.946;2022-08-21T12:11:32;28.50;43.10
13440;DHT22;6792;57.698;11.946;2022-08-21T12:14:14;28.60;43.00
13440;DHT22;6792;57.698;11.946;2022-08-21T12:16:45;28.70;43.00
13440;DHT22;6792;57.698;11.946;2022-08-21T12:19:28;28.80;42.90
13440;DHT22;6792;57.698;11.946;2022-08-21T12:22:08;28.80;42.90
13440;DHT22;6792;57.698;11.946;2022-08-21T12:24:39;28.90;42.30
13440;DHT22;6792;57.698;11.946;2022-08-21T12:27:21;29.00;43.00
13440;DHT22;6792;57.698;11.946;2022-08-21T12:29:55;29.10;43.00
13440;DHT22;6792;57.698;11.946;2022-08-21T12:32:27;29.10;42.40
13440;DHT22;6792;57.698;11.946;2022-08-21T12:35:02;29.10;43.00
13440;DHT22;6792;57.698;11.946;2022-08-21T12:37:38;29.10;43.00
13440;DHT22;6792;57.698;11.946;2022-08-21T12:40:03;29.10;42.90
13440;DHT22;6792;57.698;11.946;2022-08-21T12:42:36;29.00;42.90
13440;DHT22;6792;57.698;11.946;2022-08-21T12:45:11;29.00;42.90
13440;DHT22;6792;57.698;11.946;2022-08-21T12:47:47;28.90;42.30
13440;DHT22;6792;57.698;11.946;2022-08-21T12:50:19;28.80;42.90
13440;DHT22;6792;57.698;11.946;2022-08-21T12:52:54;28.80;43.10
13440;DHT22;6792;57.698;11.946;2022-08-21T12:55:29;28.70;42.70
13440;DHT22;6792;57.698;11.946;2022-08-21T12:57:59;28.70;43.40
13440;DHT22;6792;57.698;11.946;2022-08-21T13:00:30;28.60;43.50
13440;DHT22;6792;57.698;11.946;2022-08-21T13:02:59;28.60;43.70
13440;DHT22;6792;57.698;11.946;2022-08-21T13:05:33;28.50;43.80
13440;DHT22;6792;57.698;11.946;2022-08-21T13:08:06;28.50;43.90
13440;DHT22;6792;57.698;11.946;2022-08-21T13:10:36;28.40;44.00
13440;DHT22;6792;57.698;11.946;2022-08-21T13:13:10;28.30;44.10
13440;DHT22;6792;57.698;11.946;2022-08-21T13:15:41;28.30;44.20
13440;DHT22;6792;57.698;11.946;2022-08-21T13:18:19;28.30;44.30
13440;DHT22;6792;57.698;11.946;2022-08-21T13:20:50;28.30;44.40
13440;DHT22;6792;57.698;11.946;2022-08-21T13:23:23;28.30;44.30
13440;DHT22;6792;57.698;11.946;2022-08-21T13:25:53;28.40;44.40
13440;DHT22;6792;57.698;11.946;2022-08-21T13:28:23;28.30;44.30
13440;DHT22;6792;57.698;11.946;2022-08-21T13:30:54;28.30;44.40
13440;DHT22;6792;57.698;11.946;2022-08-21T13:33:25;28.30;44.50
13440;DHT22;6792;57.698;11.946;2022-08-21T13:36:00;28.30;44.50
13440;DHT22;6792;57.698;11.946;2022-08-21T13:38:29;28.30;44.40
13440;DHT22;6792;57.698;11.946;2022-08-21T13:41:01;28.20;44.30
13440;DHT22;6792;57.698;11.946;2022-08-21T13:43:34;28.30;44.20
13440;DHT22;6792;57.698;11.946;2022-08-21T13:46:07;28.20;44.10
13440;DHT22;6792;57.698;11.946;2022-08-21T13:48:37;28.20;44.20
13440;DHT22;6792;57.698;11.946;2022-08-21T13:51:07;28.20;44.40
13440;DHT22;6792;57.698;11.946;2022-08-21T13:53:44;28.20;44.40
13440;DHT22;6792;57.698;11.946;2022-08-21T13:56:24;28.20;44.40
13440;DHT22;6792;57.698;11.946;2022-08-21T13:58:54;28.10;43.90
13440;DHT22;6792;57.698;11.946;2022-08-21T14:01:26;28.10;44.60
13440;DHT22;6792;57.698;11.946;2022-08-21T14:03:58;28.10;44.60
13440;DHT22;6792;57.698;11.946;2022-08-21T14:06:32;28.10;44.70
13440;DHT22;6792;57.698;11.946;2022-08-21T14:09:00;28.10;44.60
13440;DHT22;6792;57.698;11.946;2022-08-21T14:11:32;28.10;44.10
13440;DHT22;6792;57.698;11.946;2022-08-21T14:14:04;28.10;44.60
13440;DHT22;6792;57.698;11.946;2022-08-21T14:16:43;28.00;44.00
13440;DHT22;6792;57.698;11.946;2022-08-21T14:19:18;28.00;44.60
13440;DHT22;6792;57.698;11.946;2022-08-21T14:21:48;27.90;44.60
13440;DHT22;6792;57.698;11.946;2022-08-21T14:24:28;28.00;44.70
13440;DHT22;6792;57.698;11.946;2022-08-21T14:27:02;28.00;44.70
13440;DHT22;6792;57.698;11.946;2022-08-21T14:29:36;28.00;44.80
13440;DHT22;6792;57.698;11.946;2022-08-21T14:32:12;28.00;44.80
13440;DHT22;6792;57.698;11.946;2022-08-21T14:34:41;28.00;44.90
13440;DHT22;6792;57.698;11.946;2022-08-21T14:37:10;28.00;44.90
13440;DHT22;6792;57.698;11.946;2022-08-21T14:39:39;28.00;45.00
13440;DHT22;6792;57.698;11.946;2022-08-21T14:42:08;28.00;45.00
13440;DHT22;6792;57.698;11.946;2022-08-21T14:44:37;28.00;45.10
13440;DHT22;6792;57.698;11.946;2022-08-21T14:47:06;28.00;45.10
13440;DHT22;6792;57.698;11.946;2022-08-21T14:49:36;28.10;45.30
13440;DHT22;6792;57.698;11.946;2022-08-21T14:52:05;28.10;45.40
13440;DHT22;6792;57.698;11.946;2022-08-21T14:54:34;28.20;45.60
13440;DHT22;6792;57.698;11.946;2022-08-21T14:57:06;28.10;45.50
13440;DHT22;6792;57.698;11.946;2022-08-21T14:59:36;28.20;45.60
13440;DHT22;6792;57.698;11.946;2022-08-21T15:02:06;28.20;45.80
13440;DHT22;6792;57.698;11.946;2022-08-21T15:04:36;28.10;45.90
13440;DHT22;6792;57.698;11.946;2022-08-21T15:07:05;28.10;46.50
13440;DHT22;6792;57.698;11.946;2022-08-21T15:09:33;28.10;46.30
13440;DHT22;6792;57.698;11.946;2022-08-21T15:12:03;28.20;46.60
13440;DHT22;6792;57.698;11.946;2022-08-21T15:14:35;28.20;46.60
13440;DHT22;6792;57.698;11.946;2022-08-21T15:17:06;28.20;46.70
13440;DHT22;6792;57.698;11.946;2022-08-21T15:19:35;28.30;46.80
13440;DHT22;6792;57.698;11.946;2022-08-21T15:22:05;28.30;46.70
13440;DHT22;6792;57.698;11.946;2022-08-21T15:24:34;28.30;46.40
13440;DHT22;6792;57.698;11.946;2022-08-21T15:27:04;28.30;46.10
13440;DHT22;6792;57.698;11.946;2022-08-21T15:29:35;28.30;45.70
13440;DHT22;6792;57.698;11.946;2022-08-21T15:32:16;28.20;45.60
13440;DHT22;6792;57.698;11.946;2022-08-21T15:34:45;28.20;45.60
13440;DHT22;6792;57.698;11.946;2022-08-21T15:37:14;28.20;45.50
13440;DHT22;6792;57.698;11.946;2022-08-21T15:39:43;28.20;45.50
13440;DHT22;6792;57.698;11.946;2022-08-21T15:42:12;28.20;45.30
13440;DHT22;6792;57.698;11.946;2022-08-21T15:44:41;28.20;45.10
13440;DHT22;6792;57.698;11.946;2022-08-21T15:47:13;28.10;44.90
13440;DHT22;6792;57.698;11.946;2022-08-21T15:49:42;28.10;44.70
13440;DHT22;6792;57.698;11.946;2022-08-21T15:52:12;28.00;44.70
13440;DHT22;6792;57.698;11.946;2022-08-21T15:54:42;28.00;44.90
13440;DHT22;6792;57.698;11.946;2022-08-21T15:57:13;27.90;44.70
13440;DHT22;6792;57.698;11.946;2022-08-21T15:59:44;27.90;44.70